createdAt,value
2022-11-18T00:03:31.321Z,9.40
2022-11-18T00:08:53.339Z,9.50
2022-11-18T00:14:21.812Z,9.40
2022-11-18T00:19:30.087Z,9.30
2022-11-18T00:24:35.975Z,9.80
2022-11-18T00:29:45.217Z,10.00
2022-11-18T00:34:58.401Z,9.30
2022-11-18T00:40:13.216Z,9.30
2022-11-18T00:45:18.017Z,9.50
2022-11-18T00:50:28.443Z,8.90
2022-11-18T00:55:37.723Z,9.20
2022-11-18T01:00:43.889Z,9.00
2022-11-18T01:05:56.687Z,9.40
2022-11-18T01:11:23.778Z,9.40
2022-11-18T01:16:31.287Z,8.90
2022-11-18T01:21:52.111Z,8.90
2022-11-18T01:27:01.222Z,9.10
2022-11-18T01:37:31.444Z,10.20
2022-11-18T01:42:36.682Z,8.90
2022-11-18T01:47:48.083Z,7.60
2022-11-18T02:12:56.245Z,9.20
2022-11-18T02:18:06.329Z,9.30
2022-11-18T02:23:50.452Z,9.10
2022-11-18T02:29:04.738Z,9.20
2022-11-18T02:34:11.084Z,9.10
2022-11-18T02:44:52.707Z,8.20
2022-11-18T02:49:56.850Z,8.20
2022-11-18T02:55:00.164Z,8.30
2022-11-18T03:00:06.287Z,8.40
2022-11-18T03:05:10.712Z,8.30
2022-11-18T03:10:14.309Z,8.30
2022-11-18T03:15:23.282Z,8.30
2022-11-18T03:20:29.826Z,8.30
2022-11-18T03:25:38.550Z,8.40
2022-11-18T03:30:53.310Z,8.40
2022-11-18T03:35:56.865Z,8.40
2022-11-18T03:41:06.058Z,8.40
2022-11-18T03:46:14.624Z,8.40
2022-11-18T03:51:20.228Z,8.50
2022-11-18T03:56:26.593Z,8.50
2022-11-18T04:01:33.952Z,8.70
2022-11-18T04:06:42.981Z,8.70
2022-11-18T04:12:05.926Z,8.50
2022-11-18T04:17:12.859Z,8.60
2022-11-18T04:22:16.707Z,8.80
2022-11-18T04:27:20.068Z,8.70
2022-11-18T04:32:25.923Z,8.70
2022-11-18T04:37:29.576Z,8.70
2022-11-18T04:42:32.842Z,8.60
2022-11-18T04:47:38.496Z,8.50
2022-11-18T04:52:42.834Z,8.50
2022-11-18T04:57:46.463Z,8.50
2022-11-18T05:03:40.401Z,8.50
2022-11-18T05:08:45.616Z,8.40
2022-11-18T05:13:49.488Z,8.30
2022-11-18T05:18:52.884Z,8.30
2022-11-18T05:23:57.859Z,8.20
2022-11-18T05:29:01.390Z,8.20
2022-11-18T05:34:05.018Z,8.20
2022-11-18T05:39:10.362Z,8.20
2022-11-18T05:44:14.772Z,8.20
2022-11-18T05:49:19.453Z,8.20
2022-11-18T05:54:25.260Z,8.20
2022-11-18T05:59:29.323Z,7.70
2022-11-18T06:04:36.089Z,8.20
2022-11-18T06:09:41.525Z,8.20
2022-11-18T06:14:46.949Z,8.20
2022-11-18T06:19:50.724Z,8.20
2022-11-18T06:24:56.070Z,8.20
2022-11-18T06:29:59.688Z,8.30
2022-11-18T06:35:03.130Z,8.20
2022-11-18T06:40:09.764Z,8.20
2022-11-18T06:45:13.766Z,8.20
2022-11-18T06:50:18.512Z,8.30
2022-11-18T06:55:24.067Z,8.30
2022-11-18T07:00:27.785Z,8.30
2022-11-18T07:05:30.987Z,8.30
2022-11-18T07:10:37.842Z,8.40
2022-11-18T07:15:41.507Z,8.40
2022-11-18T07:20:45.983Z,8.50
2022-11-18T07:25:51.075Z,8.50
2022-11-18T07:30:55.196Z,8.50
2022-11-18T07:36:02.854Z,8.60
2022-11-18T07:41:08.676Z,8.60
2022-11-18T07:46:16.039Z,8.70
2022-11-18T07:51:22.848Z,8.60
2022-11-18T07:56:29.759Z,8.60
2022-11-18T08:01:33.281Z,8.60
2022-11-18T08:06:36.591Z,8.80
2022-11-18T08:11:42.194Z,8.60
2022-11-18T08:16:46.124Z,8.60
2022-11-18T08:21:52.874Z,8.60
2022-11-18T08:26:58.159Z,8.50
2022-11-18T08:32:02.425Z,8.40
2022-11-18T08:37:06.623Z,8.50
2022-11-18T08:42:12.280Z,8.60
2022-11-18T08:47:15.414Z,8.80
2022-11-18T08:52:19.130Z,9.00
2022-11-18T08:57:24.495Z,9.60
2022-11-18T09:02:28.643Z,9.60
2022-11-18T09:07:34.855Z,9.50
2022-11-18T09:12:39.833Z,9.80
2022-11-18T09:17:44.896Z,10.30
2022-11-18T09:22:48.185Z,9.60
2022-11-18T09:27:55.686Z,9.30
2022-11-18T09:32:59.577Z,9.20
2022-11-18T09:38:03.636Z,9.30
2022-11-18T09:43:11.510Z,9.80
2022-11-18T09:48:20.601Z,10.70
2022-11-18T09:53:28.439Z,11.60
2022-11-18T09:58:36.740Z,12.00
2022-11-18T10:03:43.824Z,11.10
2022-11-18T10:08:54.973Z,10.70
2022-11-18T10:14:04.608Z,10.80
2022-11-18T10:19:13.446Z,11.50
2022-11-18T10:26:35.608Z,11.50
2022-11-18T10:31:42.555Z,10.50
2022-11-18T10:37:07.120Z,10.30
2022-11-18T10:42:20.316Z,10.20
2022-11-18T10:47:38.565Z,10.90
2022-11-18T10:52:53.407Z,11.60
2022-11-18T10:58:01.635Z,12.30
2022-11-18T11:03:40.518Z,11.60
2022-11-18T11:08:56.877Z,10.80
2022-11-18T11:14:25.278Z,10.80
2022-11-18T11:19:38.944Z,10.50
2022-11-18T11:24:45.939Z,10.60
2022-11-18T11:30:23.228Z,11.10
2022-11-18T11:35:28.764Z,10.20
2022-11-18T11:40:36.377Z,10.00
2022-11-18T11:46:06.737Z,10.30
2022-11-18T11:51:18.741Z,10.40
2022-11-18T11:56:27.880Z,9.90
2022-11-18T12:01:50.032Z,10.30
2022-11-18T12:06:55.478Z,9.70
2022-11-18T12:12:04.377Z,9.70
2022-11-18T12:17:22.396Z,10.60
2022-11-18T12:23:04.321Z,10.80
2022-11-18T12:28:11.516Z,10.60
2022-11-18T12:33:38.122Z,10.20
2022-11-18T12:38:56.646Z,11.80
2022-11-18T12:50:08.784Z,10.70
2022-11-18T12:55:20.891Z,10.50
2022-11-18T13:00:56.312Z,10.40
2022-11-18T13:06:23.300Z,10.50
2022-11-18T13:12:12.687Z,10.50
2022-11-18T13:17:46.988Z,11.10
2022-11-18T13:23:18.280Z,10.30
2022-11-18T13:28:35.461Z,10.00
2022-11-18T13:33:47.535Z,9.70
2022-11-18T13:39:07.363Z,10.50
2022-11-18T13:44:35.313Z,10.50
2022-11-18T13:49:50.861Z,10.30
2022-11-18T13:55:09.221Z,10.20
2022-11-18T14:00:26.927Z,10.40
2022-11-18T14:05:36.332Z,10.40
2022-11-18T14:10:52.474Z,11.20
2022-11-18T14:16:00.522Z,10.60
2022-11-18T14:21:13.967Z,10.30
2022-11-18T14:26:18.881Z,10.20
2022-11-18T14:31:45.342Z,10.20
2022-11-18T14:36:49.393Z,9.80
2022-11-18T14:41:58.655Z,10.70
2022-11-18T14:47:12.281Z,10.10
2022-11-18T14:52:30.032Z,9.90
2022-11-18T14:57:37.734Z,9.70
2022-11-18T15:02:48.630Z,9.60
2022-11-18T15:07:59.552Z,9.50
2022-11-18T15:13:06.817Z,9.70
2022-11-18T15:18:22.084Z,9.40
2022-11-18T15:23:29.994Z,9.30
2022-11-18T15:28:40.139Z,8.90
2022-11-18T15:34:03.516Z,9.00
2022-11-18T15:39:14.868Z,7.90
2022-11-18T15:44:25.465Z,8.70
2022-11-18T15:49:50.165Z,8.60
2022-11-18T15:55:08.276Z,9.10
2022-11-18T16:00:23.037Z,9.90
2022-11-18T16:05:32.404Z,8.90
2022-11-18T16:16:44.238Z,8.70
2022-11-18T16:21:53.086Z,8.60
2022-11-18T16:27:04.656Z,8.70
2022-11-18T16:32:14.534Z,8.80
2022-11-18T16:37:20.113Z,9.60
2022-11-18T16:42:29.347Z,8.80
2022-11-18T16:47:39.976Z,8.40
2022-11-18T16:52:57.100Z,8.70
2022-11-18T16:58:07.235Z,9.80
2022-11-18T17:03:20.973Z,8.60
2022-11-18T17:08:48.599Z,8.70
2022-11-18T17:13:58.508Z,8.40
2022-11-18T17:19:11.893Z,8.50
2022-11-18T17:24:20.092Z,7.30
2022-11-18T17:29:24.286Z,8.30
2022-11-18T17:34:30.299Z,8.30
2022-11-18T17:40:05.692Z,9.80
2022-11-18T17:45:15.589Z,8.90
2022-11-18T17:50:31.555Z,8.40
2022-11-18T17:55:45.741Z,8.80
2022-11-18T18:00:54.729Z,9.20
2022-11-18T18:06:04.483Z,8.30
2022-11-18T18:11:13.814Z,8.70
2022-11-18T18:16:19.570Z,8.30
2022-11-18T18:21:23.283Z,8.10
2022-11-18T18:26:34.550Z,8.20
2022-11-18T18:31:38.704Z,8.20
2022-11-18T18:36:42.686Z,8.50
2022-11-18T18:41:48.766Z,8.20
2022-11-18T18:46:54.426Z,8.20
2022-11-18T18:57:20.093Z,9.70
2022-11-18T19:02:26.511Z,8.40
2022-11-18T19:07:34.163Z,8.50
2022-11-18T19:12:54.449Z,8.40
2022-11-18T19:18:05.421Z,8.60
2022-11-18T19:23:14.434Z,8.30
2022-11-18T19:33:41.886Z,7.00
2022-11-18T19:44:15.132Z,8.10
2022-11-18T19:49:21.703Z,8.10
2022-11-18T19:54:37.728Z,8.10
2022-11-18T19:59:43.160Z,8.10
2022-11-18T20:05:07.585Z,8.10
2022-11-18T20:10:13.955Z,8.20
2022-11-18T20:15:42.741Z,8.20
2022-11-18T20:20:53.064Z,8.20
2022-11-18T20:25:59.025Z,8.10
2022-11-18T20:31:15.852Z,9.30
2022-11-18T20:36:30.334Z,7.20
2022-11-18T20:42:08.980Z,8.30
2022-11-18T20:47:15.860Z,8.00
2022-11-18T20:52:22.613Z,8.00
2022-11-18T20:57:35.544Z,8.00
2022-11-18T21:02:46.815Z,8.00
2022-11-18T21:07:54.906Z,8.00
2022-11-18T21:13:16.286Z,7.90
2022-11-18T21:18:38.606Z,7.80
2022-11-18T21:23:49.386Z,7.90
2022-11-18T21:28:56.228Z,7.80
2022-11-18T21:34:17.344Z,7.90
2022-11-18T21:39:21.838Z,8.00
2022-11-18T21:44:28.931Z,8.40
2022-11-18T21:49:42.727Z,8.20
2022-11-18T21:55:11.778Z,7.90
2022-11-18T22:00:23.344Z,7.70
2022-11-18T22:05:38.463Z,7.80
2022-11-18T22:10:52.937Z,8.40
2022-11-18T22:16:09.079Z,8.30
2022-11-18T22:21:35.256Z,8.20
2022-11-18T22:26:45.135Z,8.30
2022-11-18T22:31:52.273Z,8.90
2022-11-18T22:37:05.872Z,8.40
2022-11-18T22:42:46.934Z,8.50
2022-11-18T22:47:50.859Z,8.50
2022-11-18T22:52:56.279Z,8.40
2022-11-18T22:58:00.005Z,8.40
2022-11-18T23:03:04.680Z,8.10
2022-11-18T23:08:11.539Z,8.10
2022-11-18T23:13:38.346Z,8.50
2022-11-18T23:18:41.932Z,8.40
2022-11-18T23:24:01.801Z,8.40
2022-11-18T23:29:09.415Z,8.70
2022-11-18T23:34:13.407Z,8.30
2022-11-18T23:39:27.994Z,8.20
2022-11-18T23:44:52.635Z,7.90
2022-11-18T23:49:58.704Z,8.20
2022-11-18T23:55:16.165Z,9.00
